createdAt,value
2023-05-09T06:42:32.649Z,2.04
2023-05-09T06:43:32.535Z,2.35
2023-05-09T06:44:32.513Z,2.08
2023-05-09T06:45:32.538Z,2.28
2023-05-09T06:46:32.424Z,2.22
2023-05-09T06:47:32.359Z,1.24
2023-05-09T06:48:32.264Z,1.43
2023-05-09T06:49:32.185Z,2.24
2023-05-09T06:50:32.927Z,1.72
2023-05-09T06:51:32.035Z,2.80
2023-05-09T06:52:31.951Z,2.43
2023-05-09T06:53:31.876Z,2.30
2023-05-09T06:54:31.806Z,2.72
2023-05-09T06:55:31.776Z,1.96
2023-05-09T06:56:31.668Z,2.53
2023-05-09T06:57:31.551Z,2.13
2023-05-09T06:58:31.552Z,2.71
2023-05-09T06:59:31.364Z,3.08
2023-05-09T07:00:31.282Z,3.00
2023-05-09T07:01:31.280Z,2.71
2023-05-09T07:02:31.191Z,2.46
2023-05-09T07:03:31.067Z,2.39
2023-05-09T07:04:31.003Z,2.06
2023-05-09T07:05:30.995Z,2.23
2023-05-09T07:06:30.796Z,1.98
2023-05-09T07:07:30.758Z,1.78
2023-05-09T07:08:30.656Z,1.77
2023-05-09T07:09:30.561Z,1.73
2023-05-09T07:10:30.495Z,2.19
2023-05-09T07:11:30.385Z,2.00
2023-05-09T07:12:30.279Z,1.89
2023-05-09T07:13:30.200Z,2.36
2023-05-09T07:14:30.228Z,2.64
2023-05-09T07:15:41.413Z,2.33
2023-05-09T07:16:30.939Z,2.71
2023-05-09T07:17:29.927Z,2.36
2023-05-09T07:18:29.796Z,1.96
2023-05-09T07:19:29.707Z,2.13
2023-05-09T07:20:36.577Z,1.84
2023-05-09T07:21:29.497Z,2.24
2023-05-09T07:22:31.777Z,1.98
2023-05-09T07:23:29.330Z,1.77
2023-05-09T07:24:29.220Z,2.08
2023-05-09T07:25:29.131Z,1.66
2023-05-09T07:26:29.057Z,2.13
2023-05-09T07:27:28.974Z,2.01
2023-05-09T07:28:28.900Z,2.00
2023-05-09T07:29:28.832Z,1.74
2023-05-09T07:30:28.942Z,1.65
2023-05-09T07:31:28.644Z,2.23
2023-05-09T07:32:28.570Z,2.20
2023-05-09T07:33:28.429Z,2.02
2023-05-09T07:34:28.325Z,1.79
2023-05-09T07:35:28.240Z,2.66
2023-05-09T07:36:28.149Z,2.46
2023-05-09T07:37:28.141Z,2.53
2023-05-09T07:38:28.034Z,2.49
2023-05-09T07:39:27.888Z,2.82
2023-05-09T07:40:27.784Z,3.01
2023-05-09T07:41:27.686Z,4.03
2023-05-09T07:42:27.580Z,4.03
2023-05-09T07:43:27.496Z,3.69
2023-05-09T07:44:27.385Z,4.37
2023-05-09T07:45:27.353Z,6.13
2023-05-09T07:46:27.404Z,6.70
2023-05-09T07:47:27.166Z,11.57
2023-05-09T07:48:27.013Z,9.60
2023-05-09T07:49:26.933Z,10.04
2023-05-09T07:50:26.813Z,9.21
2023-05-09T07:51:26.818Z,8.39
2023-05-09T07:52:26.611Z,7.38
2023-05-09T07:53:26.510Z,6.92
2023-05-09T07:54:26.410Z,6.81
2023-05-09T07:55:26.321Z,5.73
2023-05-09T07:56:26.239Z,5.19
2023-05-09T07:57:26.138Z,4.59
2023-05-09T07:58:26.044Z,4.70
2023-05-09T07:59:25.935Z,3.52
2023-05-09T08:00:25.879Z,4.69
2023-05-09T08:01:25.733Z,4.45
2023-05-09T08:02:25.836Z,2.87
2023-05-09T08:03:25.657Z,3.01
2023-05-09T08:04:25.496Z,2.37
2023-05-09T08:05:25.366Z,1.99
2023-05-09T08:06:25.294Z,2.76
2023-05-09T08:07:25.223Z,2.34
2023-05-09T08:08:25.270Z,2.39
2023-05-09T08:09:25.119Z,2.42
2023-05-09T08:10:25.044Z,2.32
2023-05-09T08:11:24.969Z,1.96
2023-05-09T08:12:24.894Z,2.03
2023-05-09T08:13:24.960Z,1.89
2023-05-09T08:14:24.764Z,2.26
2023-05-09T08:15:24.671Z,2.01
2023-05-09T08:16:24.706Z,1.70
2023-05-09T08:17:24.517Z,1.18
2023-05-09T08:18:24.488Z,1.24
2023-05-09T08:19:24.301Z,1.56
2023-05-09T08:20:24.193Z,1.70
2023-05-09T08:21:24.098Z,1.29
2023-05-09T08:22:24.003Z,1.54
2023-05-09T08:23:23.904Z,1.74
2023-05-09T08:24:23.821Z,1.66
2023-05-09T08:25:23.725Z,1.69
2023-05-09T08:26:23.601Z,1.88
2023-05-09T08:27:23.524Z,1.85
2023-05-09T08:28:23.390Z,1.96
2023-05-09T08:29:23.304Z,1.67
2023-05-09T08:30:23.194Z,1.74
2023-05-09T08:31:23.125Z,2.43
2023-05-09T08:32:22.996Z,1.62
2023-05-09T08:33:22.901Z,1.69
2023-05-09T08:34:22.864Z,1.38
2023-05-09T08:35:22.691Z,1.85
2023-05-09T08:36:22.598Z,1.41
2023-05-09T08:37:22.495Z,1.62
2023-05-09T08:38:22.394Z,2.00
2023-05-09T08:39:22.296Z,1.29
2023-05-09T08:40:22.286Z,1.38
2023-05-09T08:41:22.104Z,1.14
2023-05-09T08:42:22.972Z,1.36
2023-05-09T08:43:21.903Z,0.75
2023-05-09T08:44:21.804Z,1.39
2023-05-09T08:45:21.701Z,0.86
2023-05-09T08:46:21.686Z,0.90
2023-05-09T08:47:21.502Z,1.24
2023-05-09T08:48:21.398Z,1.69
2023-05-09T08:49:21.304Z,1.64
2023-05-09T08:50:21.310Z,1.32
2023-05-09T08:51:21.113Z,1.52
2023-05-09T08:52:21.001Z,1.77
2023-05-09T08:53:20.919Z,1.32
2023-05-09T08:54:22.774Z,1.36
2023-05-09T08:55:20.709Z,1.59
2023-05-09T08:56:20.602Z,1.37
2023-05-09T08:57:20.496Z,0.86
2023-05-09T08:58:20.442Z,0.84
2023-05-09T08:59:20.357Z,1.27
2023-05-09T09:00:20.842Z,1.54
2023-05-09T09:01:20.193Z,1.21
2023-05-09T09:02:20.097Z,1.12
2023-05-09T09:03:20.046Z,1.39
2023-05-09T09:04:20.009Z,1.11
2023-05-09T09:05:40.242Z,1.29
2023-05-09T09:06:20.915Z,1.41
2023-05-09T09:07:19.730Z,1.14
2023-05-09T09:08:19.613Z,1.34
2023-05-09T09:09:19.524Z,1.02
2023-05-09T09:10:19.423Z,1.45
2023-05-09T09:11:19.339Z,0.93
2023-05-09T09:12:19.220Z,0.87
2023-05-09T09:13:19.226Z,1.29
2023-05-09T09:14:19.085Z,1.12
2023-05-09T09:15:18.974Z,1.12
2023-05-09T09:16:18.960Z,0.92
2023-05-09T09:17:18.867Z,1.34
2023-05-09T09:18:18.786Z,1.16
2023-05-09T09:19:18.729Z,1.23
2023-05-09T09:20:18.691Z,1.04
2023-05-09T09:21:18.606Z,1.37
2023-05-09T09:22:18.656Z,1.14
2023-05-09T09:23:18.488Z,1.35
2023-05-09T09:24:18.434Z,1.01
2023-05-09T09:25:18.357Z,1.33
2023-05-09T09:26:18.317Z,0.89
2023-05-09T09:27:18.279Z,1.19
2023-05-09T09:28:18.258Z,1.59
2023-05-09T09:29:18.118Z,1.44
2023-05-09T09:30:18.011Z,1.31
2023-05-09T09:31:17.929Z,1.46
2023-05-09T09:32:17.887Z,0.97
2023-05-09T09:33:17.725Z,1.46
2023-05-09T09:34:17.621Z,1.06
2023-05-09T09:35:17.511Z,1.27
2023-05-09T09:36:17.420Z,1.32
2023-05-09T09:37:17.314Z,1.22
2023-05-09T09:38:17.348Z,1.48
2023-05-09T09:39:17.233Z,1.62
2023-05-09T09:40:17.273Z,1.50
2023-05-09T09:41:17.140Z,1.30
2023-05-09T09:42:17.059Z,1.48
2023-05-09T09:43:17.022Z,1.13
2023-05-09T09:44:16.999Z,1.17
2023-05-09T09:45:16.939Z,1.33
2023-05-09T09:46:17.009Z,1.73
2023-05-09T09:47:16.848Z,1.66
2023-05-09T09:48:16.780Z,1.19
2023-05-09T09:49:16.686Z,1.24
2023-05-09T09:50:16.810Z,1.11
2023-05-09T09:51:17.273Z,1.57
2023-05-09T09:52:16.493Z,1.21
2023-05-09T09:53:16.449Z,1.55
2023-05-09T09:54:16.442Z,1.28
2023-05-09T09:55:16.278Z,1.04
2023-05-09T09:56:16.207Z,1.08
2023-05-09T09:57:16.124Z,1.41
2023-05-09T09:58:16.053Z,0.71
2023-05-09T09:59:15.989Z,1.19
2023-05-09T10:00:16.122Z,0.95
2023-05-09T10:01:15.883Z,1.49
2023-05-09T10:02:15.751Z,1.00
2023-05-09T10:03:15.841Z,0.93
2023-05-09T10:04:15.657Z,1.08
2023-05-09T10:05:15.527Z,0.77
2023-05-09T10:06:15.376Z,0.90
2023-05-09T10:07:15.353Z,0.89
2023-05-09T10:08:15.153Z,0.67
2023-05-09T10:09:15.059Z,0.90
2023-05-09T10:10:15.275Z,0.87
2023-05-09T10:11:14.847Z,0.75
2023-05-09T10:12:14.877Z,0.88
2023-05-09T10:13:14.686Z,0.90
2023-05-09T10:14:14.553Z,0.70
2023-05-09T10:15:14.423Z,0.66
2023-05-09T10:16:14.466Z,0.67
2023-05-09T10:17:14.296Z,0.60
2023-05-09T10:18:14.278Z,0.59
2023-05-09T10:19:14.019Z,0.66
2023-05-09T10:20:14.159Z,0.94
2023-05-09T10:21:13.783Z,0.40
2023-05-09T10:22:13.674Z,0.60
2023-05-09T10:23:13.576Z,0.68
2023-05-09T10:24:13.461Z,0.37
2023-05-09T10:25:13.640Z,0.51
2023-05-09T10:26:13.356Z,0.70
2023-05-09T10:27:13.145Z,0.61
2023-05-09T10:28:13.031Z,0.78
2023-05-09T10:29:12.941Z,0.54
2023-05-09T10:30:12.811Z,0.50
2023-05-09T10:31:12.748Z,0.90
2023-05-09T10:32:12.588Z,0.70
2023-05-09T10:33:12.541Z,0.67
2023-05-09T10:34:12.371Z,0.63
2023-05-09T10:35:12.414Z,0.76
2023-05-09T10:36:12.157Z,0.52
2023-05-09T10:37:12.049Z,0.70
2023-05-09T10:38:11.931Z,0.53
2023-05-09T10:39:11.893Z,0.92
2023-05-09T10:40:11.723Z,0.71
2023-05-09T10:41:11.623Z,1.30
2023-05-09T10:42:11.609Z,0.56
2023-05-09T10:43:11.412Z,0.64
2023-05-09T10:44:11.323Z,0.30
2023-05-09T10:45:11.251Z,0.58
2023-05-09T10:46:11.121Z,0.56
2023-05-09T10:47:10.986Z,0.40
2023-05-09T10:48:10.894Z,0.41
2023-05-09T10:49:10.797Z,0.73
2023-05-09T10:50:10.676Z,0.45
2023-05-09T10:51:10.629Z,0.46
2023-05-09T10:52:10.470Z,0.49
2023-05-09T10:53:10.338Z,0.39
2023-05-09T10:54:10.236Z,0.40
2023-05-09T10:55:10.147Z,0.32
2023-05-09T10:56:10.027Z,0.83
2023-05-09T10:57:09.952Z,0.43
2023-05-09T10:58:09.902Z,0.47
2023-05-09T10:59:09.778Z,0.46
2023-05-09T11:00:09.608Z,0.34
2023-05-09T11:01:09.518Z,0.46
2023-05-09T11:02:09.407Z,0.36
2023-05-09T11:03:09.384Z,0.26
2023-05-09T11:04:09.168Z,0.41
2023-05-09T11:05:09.069Z,0.59
2023-05-09T11:06:08.962Z,0.34
2023-05-09T11:07:08.873Z,0.33
2023-05-09T11:08:08.755Z,0.56
2023-05-09T11:09:08.644Z,0.46
2023-05-09T11:10:08.544Z,0.56
2023-05-09T11:11:08.445Z,0.82
2023-05-09T11:12:08.337Z,0.47
2023-05-09T11:13:08.294Z,0.38
2023-05-09T11:14:08.211Z,0.66
2023-05-09T11:15:08.070Z,0.60
2023-05-09T11:16:07.969Z,0.55
2023-05-09T11:17:07.807Z,0.60
2023-05-09T11:18:07.890Z,0.33
2023-05-09T11:19:07.587Z,0.65
2023-05-09T11:20:07.485Z,0.47
2023-05-09T11:21:07.413Z,0.38
2023-05-09T11:22:07.251Z,0.33
2023-05-09T11:23:07.142Z,0.48
2023-05-09T11:24:07.037Z,0.82
2023-05-09T11:25:06.933Z,0.71
2023-05-09T11:26:06.810Z,0.81
2023-05-09T11:27:06.701Z,0.73
2023-05-09T11:28:06.651Z,0.62
2023-05-09T11:29:06.623Z,0.61
2023-05-09T11:30:06.503Z,0.66
2023-05-09T11:31:06.272Z,0.55
2023-05-09T11:32:06.266Z,0.88
2023-05-09T11:33:06.067Z,0.54
2023-05-09T11:34:05.946Z,0.54
2023-05-09T11:35:05.835Z,0.70
2023-05-09T11:36:05.718Z,0.57
2023-05-09T11:37:05.606Z,0.61
2023-05-09T11:38:05.503Z,0.78
2023-05-09T11:39:05.390Z,0.61
2023-05-09T11:40:05.282Z,0.70
2023-05-09T11:41:05.187Z,0.45
2023-05-09T11:42:05.045Z,0.65
2023-05-09T11:43:04.984Z,0.59
2023-05-09T11:44:04.879Z,0.42
2023-05-09T11:45:04.840Z,0.55
2023-05-09T11:46:04.809Z,0.57
2023-05-09T11:47:04.658Z,0.43
2023-05-09T11:48:04.597Z,0.63
2023-05-09T11:49:04.495Z,0.76
2023-05-09T11:50:04.434Z,0.43
2023-05-09T11:51:04.345Z,0.57
2023-05-09T11:52:04.275Z,0.61
2023-05-09T11:53:04.190Z,0.70
2023-05-09T11:54:04.090Z,0.61
2023-05-09T11:55:04.018Z,0.75
2023-05-09T11:56:03.974Z,0.39
2023-05-09T11:57:03.825Z,1.14
2023-05-09T11:58:03.719Z,0.52
2023-05-09T11:59:03.615Z,0.70
2023-05-09T12:00:03.524Z,0.69
2023-05-09T12:01:03.382Z,0.77
2023-05-09T12:02:03.393Z,0.47
2023-05-09T12:03:03.243Z,1.05
2023-05-09T12:04:03.134Z,0.53
2023-05-09T12:05:02.956Z,0.76
2023-05-09T12:06:02.865Z,0.46
2023-05-09T12:07:02.749Z,0.41
2023-05-09T12:08:02.630Z,0.63
2023-05-09T12:09:02.524Z,0.58
2023-05-09T12:10:02.424Z,0.48
2023-05-09T12:11:02.307Z,0.46
2023-05-09T12:12:02.198Z,0.56
2023-05-09T12:13:02.148Z,0.66
2023-05-09T12:14:01.978Z,0.55
2023-05-09T12:15:01.869Z,0.72
2023-05-09T12:16:01.797Z,0.48
2023-05-09T12:17:01.642Z,0.80
2023-05-09T12:18:01.678Z,0.43
2023-05-09T12:19:01.424Z,1.03
2023-05-09T12:20:01.332Z,0.51
2023-05-09T12:21:01.197Z,0.72
2023-05-09T12:22:01.086Z,0.69
2023-05-09T12:23:00.957Z,0.50
2023-05-09T12:24:00.859Z,0.47
2023-05-09T12:25:00.773Z,0.64
2023-05-09T12:26:00.663Z,0.59
2023-05-09T12:27:00.521Z,0.72
2023-05-09T12:28:00.409Z,0.75
2023-05-09T12:29:00.293Z,0.54
2023-05-09T12:30:00.211Z,0.38
2023-05-09T12:31:00.080Z,0.35
2023-05-09T12:31:59.958Z,0.44
2023-05-09T12:32:59.942Z,0.80
2023-05-09T12:34:00.149Z,0.36
2023-05-09T12:34:59.635Z,0.57
2023-05-09T12:35:59.532Z,0.56
2023-05-09T12:36:59.413Z,0.51
2023-05-09T12:37:59.312Z,0.48
2023-05-09T12:38:59.182Z,0.45
2023-05-09T12:39:59.079Z,0.47
2023-05-09T12:40:59.347Z,0.68
2023-05-09T12:42:01.980Z,0.52
2023-05-09T12:42:58.730Z,0.46
2023-05-09T12:43:58.615Z,0.48
2023-05-09T12:44:58.506Z,0.75
2023-05-09T12:45:58.391Z,0.50
2023-05-09T12:46:58.321Z,0.56
2023-05-09T12:47:58.213Z,0.31
2023-05-09T12:48:58.057Z,0.36
2023-05-09T12:49:57.967Z,0.63
2023-05-09T12:50:57.829Z,0.67
2023-05-09T12:51:57.726Z,0.48
2023-05-09T12:53:03.170Z,0.58
2023-05-09T12:53:58.503Z,0.44
2023-05-09T12:54:57.400Z,0.60
2023-05-09T12:55:57.269Z,0.43
2023-05-09T12:56:57.160Z,0.74
2023-05-09T12:57:57.040Z,0.52
2023-05-09T12:58:56.939Z,0.26
2023-05-09T12:59:56.836Z,0.56
2023-05-09T13:00:56.735Z,0.53
2023-05-09T13:01:56.722Z,1.12
2023-05-09T13:02:56.581Z,0.51
2023-05-09T13:03:56.425Z,0.82
2023-05-09T13:04:56.362Z,0.96
2023-05-09T13:05:56.427Z,0.59
2023-05-09T13:06:56.237Z,0.53
2023-05-09T13:07:56.164Z,0.42
2023-05-09T13:08:56.096Z,0.42
2023-05-09T13:09:56.047Z,0.62
2023-05-09T13:11:07.871Z,0.47
2023-05-09T13:11:56.918Z,0.59
2023-05-09T13:12:55.801Z,0.26
2023-05-09T13:13:55.664Z,0.42
2023-05-09T13:14:55.566Z,0.47
2023-05-09T13:15:55.424Z,0.57
2023-05-09T13:16:55.370Z,0.46
2023-05-09T13:17:55.256Z,0.67
2023-05-09T13:18:55.090Z,0.48
2023-05-09T13:19:54.981Z,0.59
2023-05-09T13:20:54.934Z,0.70
2023-05-09T13:21:54.952Z,0.45
2023-05-09T13:22:54.787Z,0.65
2023-05-09T13:23:54.796Z,0.69
2023-05-09T13:24:54.725Z,0.44
2023-05-09T13:25:54.639Z,0.42
2023-05-09T13:26:54.578Z,0.46
2023-05-09T13:27:54.520Z,0.53
2023-05-09T13:28:54.453Z,0.45
2023-05-09T13:29:54.386Z,0.65
2023-05-09T13:30:54.379Z,0.62
2023-05-09T13:31:54.291Z,0.58
2023-05-09T13:32:54.286Z,0.57
2023-05-09T13:33:54.176Z,0.41
2023-05-09T13:34:54.084Z,0.41
2023-05-09T13:35:54.014Z,0.41
2023-05-09T13:36:53.939Z,0.32
2023-05-09T13:37:53.961Z,0.33
2023-05-09T13:38:53.787Z,0.75
2023-05-09T13:39:53.671Z,0.74
2023-05-09T13:40:53.606Z,0.76
2023-05-09T13:41:53.527Z,0.41
2023-05-09T13:42:53.457Z,0.27
2023-05-09T13:43:53.398Z,0.47
2023-05-09T13:44:53.330Z,0.48
2023-05-09T13:45:53.335Z,0.46
2023-05-09T13:46:53.170Z,0.28
2023-05-09T13:47:53.133Z,0.56
2023-05-09T13:48:52.970Z,0.40
2023-05-09T13:49:52.908Z,0.41
2023-05-09T13:50:52.882Z,0.58
2023-05-09T13:51:52.755Z,0.36
2023-05-09T13:52:52.704Z,0.67
2023-05-09T13:53:52.710Z,0.45
2023-05-09T13:54:52.520Z,0.50
2023-05-09T13:55:52.479Z,0.51
2023-05-09T13:56:52.454Z,0.80
2023-05-09T13:57:52.301Z,0.67
2023-05-09T13:58:52.200Z,0.49
2023-05-09T13:59:52.090Z,0.50
2023-05-09T14:00:51.965Z,0.57
2023-05-09T14:01:51.896Z,0.40
2023-05-09T14:02:51.750Z,0.49
2023-05-09T14:03:51.670Z,0.41
2023-05-09T14:04:51.492Z,0.50
2023-05-09T14:05:51.380Z,0.48
2023-05-09T14:06:51.284Z,0.40
2023-05-09T14:07:51.221Z,0.33
2023-05-09T14:08:51.145Z,0.45
2023-05-09T14:09:56.180Z,0.92
2023-05-09T14:10:51.952Z,0.47
2023-05-09T14:11:50.851Z,0.60
2023-05-09T14:12:50.729Z,0.68
2023-05-09T14:13:50.598Z,0.34
2023-05-09T14:14:50.486Z,0.46
2023-05-09T14:15:50.419Z,0.42
2023-05-09T14:16:50.258Z,0.52
2023-05-09T14:17:50.164Z,0.61
2023-05-09T14:18:50.001Z,0.41
2023-05-09T14:19:49.874Z,0.44
2023-05-09T14:20:49.769Z,0.54
2023-05-09T14:21:49.654Z,0.43
2023-05-09T14:22:49.512Z,0.42
2023-05-09T14:23:49.404Z,0.45
2023-05-09T14:24:49.312Z,0.42
2023-05-09T14:25:49.302Z,0.44
2023-05-09T14:26:49.132Z,0.55
2023-05-09T14:27:49.044Z,0.31
2023-05-09T14:28:48.933Z,0.22
2023-05-09T14:29:48.838Z,0.37
2023-05-09T14:30:48.737Z,0.53
2023-05-09T14:31:48.671Z,0.45
2023-05-09T14:32:48.536Z,0.63
2023-05-09T14:33:48.442Z,0.51
2023-05-09T14:34:48.339Z,0.62
2023-05-09T14:35:48.238Z,0.45
2023-05-09T14:36:48.135Z,0.40
2023-05-09T14:37:48.023Z,0.30
2023-05-09T14:38:47.922Z,0.28
2023-05-09T14:39:47.815Z,0.47
2023-05-09T14:40:47.702Z,0.50
2023-05-09T14:41:47.661Z,0.27
2023-05-09T14:42:47.466Z,0.28
2023-05-09T14:43:47.352Z,0.27
2023-05-09T14:44:47.269Z,0.29
2023-05-09T14:45:47.123Z,0.38
2023-05-09T14:46:47.053Z,0.35
2023-05-09T14:47:46.918Z,0.43
2023-05-09T14:48:46.757Z,0.30
2023-05-09T14:49:46.671Z,0.80
2023-05-09T14:50:46.575Z,0.51
2023-05-09T14:51:46.480Z,0.42
2023-05-09T14:52:46.356Z,0.29
2023-05-09T14:53:46.239Z,0.90
2023-05-09T14:54:46.153Z,0.51
2023-05-09T14:55:46.086Z,0.53
2023-05-09T14:56:46.012Z,0.26
2023-05-09T14:57:46.018Z,0.34
2023-05-09T14:58:45.851Z,0.45
2023-05-09T14:59:45.756Z,0.52
2023-05-09T15:00:45.699Z,0.44
2023-05-09T15:01:45.601Z,0.37
2023-05-09T15:02:45.541Z,0.57
2023-05-09T15:03:45.469Z,0.64
2023-05-09T15:04:45.404Z,0.41
2023-05-09T15:05:45.338Z,0.35
2023-05-09T15:06:45.284Z,0.45
2023-05-09T15:07:45.217Z,0.35
2023-05-09T15:08:45.151Z,0.44
2023-05-09T15:09:45.097Z,0.67
2023-05-09T15:10:45.033Z,0.40
2023-05-09T15:11:48.345Z,0.53
2023-05-09T15:12:44.934Z,0.44
2023-05-09T15:13:44.790Z,0.38
2023-05-09T15:14:44.571Z,0.42
2023-05-09T15:15:44.452Z,0.31
2023-05-09T15:16:44.558Z,0.48
2023-05-09T15:17:44.222Z,0.39
2023-05-09T15:18:44.065Z,0.32
2023-05-09T15:19:43.942Z,0.49
2023-05-09T15:20:43.810Z,0.39
2023-05-09T15:21:43.701Z,0.31
2023-05-09T15:22:43.590Z,0.36
2023-05-09T15:23:43.445Z,0.42
2023-05-09T15:24:43.317Z,0.49
2023-05-09T15:25:43.205Z,0.46
2023-05-09T15:26:43.088Z,0.32
2023-05-09T15:27:42.930Z,0.45
2023-05-09T15:28:42.815Z,0.35
2023-05-09T15:29:42.879Z,0.38
2023-05-09T15:30:42.558Z,0.21
2023-05-09T15:31:42.419Z,0.38
2023-05-09T15:32:42.323Z,0.44
2023-05-09T15:33:42.155Z,0.47
2023-05-09T15:34:42.030Z,0.70
2023-05-09T15:35:41.922Z,0.42
2023-05-09T15:36:41.855Z,0.30
2023-05-09T15:37:41.787Z,0.25
2023-05-09T15:38:41.713Z,0.42
2023-05-09T15:39:41.648Z,0.40
2023-05-09T15:40:41.593Z,0.32
2023-05-09T15:41:41.528Z,0.43
2023-05-09T15:42:41.466Z,0.67
2023-05-09T15:43:41.378Z,0.88
2023-05-09T15:44:41.316Z,0.44
2023-05-09T15:45:41.391Z,0.28
2023-05-09T15:46:41.375Z,0.47
2023-05-09T15:47:41.133Z,0.36
2023-05-09T15:48:41.022Z,0.55
2023-05-09T15:49:40.972Z,0.23
2023-05-09T15:50:40.900Z,0.46
2023-05-09T15:51:40.844Z,0.41
2023-05-09T15:52:40.774Z,0.42
2023-05-09T15:53:40.696Z,0.50
2023-05-09T15:54:40.695Z,0.39
2023-05-09T15:55:40.580Z,0.40
2023-05-09T15:56:40.521Z,0.53
2023-05-09T15:57:40.459Z,0.40
2023-05-09T15:58:40.439Z,0.47
2023-05-09T15:59:40.327Z,0.54
2023-05-09T16:00:40.271Z,0.44
2023-05-09T16:01:40.298Z,0.27
2023-05-09T16:02:40.236Z,0.37
2023-05-09T16:03:40.192Z,0.37
2023-05-09T16:04:40.026Z,0.45
2023-05-09T16:05:39.951Z,0.39
2023-05-09T16:06:39.929Z,0.57
2023-05-09T16:07:39.857Z,0.31
2023-05-09T16:08:39.787Z,0.57
2023-05-09T16:09:39.730Z,0.45
2023-05-09T16:10:39.670Z,0.49
2023-05-09T16:11:39.598Z,0.65
2023-05-09T16:12:39.537Z,0.31
2023-05-09T16:13:39.495Z,0.24
2023-05-09T16:14:39.401Z,0.50
2023-05-09T16:15:39.331Z,0.50
2023-05-09T16:16:39.314Z,0.36
2023-05-09T16:17:39.281Z,0.45
2023-05-09T16:18:39.133Z,0.38
2023-05-09T16:19:39.074Z,0.55
2023-05-09T16:20:38.999Z,0.29
2023-05-09T16:21:38.955Z,0.45
2023-05-09T16:22:38.861Z,0.38
2023-05-09T16:23:38.792Z,0.36
2023-05-09T16:24:38.736Z,0.40
2023-05-09T16:25:38.663Z,0.44
2023-05-09T16:26:38.606Z,0.36
2023-05-09T16:27:38.536Z,0.24
2023-05-09T16:28:38.465Z,0.28
2023-05-09T16:29:38.400Z,0.30
2023-05-09T16:30:38.366Z,0.41
2023-05-09T16:31:38.333Z,0.30
2023-05-09T16:32:38.294Z,0.22
2023-05-09T16:33:38.261Z,0.37
2023-05-09T16:34:38.124Z,0.40
2023-05-09T16:35:38.062Z,0.53
2023-05-09T16:36:38.018Z,0.45
2023-05-09T16:37:37.981Z,0.72
2023-05-09T16:38:37.899Z,0.39
2023-05-09T16:39:37.858Z,0.35
2023-05-09T16:40:37.777Z,0.33
2023-05-09T16:41:37.702Z,0.35
2023-05-09T16:42:37.619Z,0.40
2023-05-09T16:43:37.587Z,0.47
2023-05-09T16:44:37.501Z,0.56
2023-05-09T16:45:37.412Z,0.41
2023-05-09T16:46:37.237Z,0.47
2023-05-09T16:47:37.121Z,0.41
2023-05-09T16:48:36.975Z,0.33
2023-05-09T16:49:36.948Z,0.41
2023-05-09T16:50:36.743Z,0.39
2023-05-09T16:51:36.595Z,0.30
2023-05-09T16:52:36.482Z,0.26
2023-05-09T16:53:36.343Z,0.22
2023-05-09T16:54:36.222Z,0.22
2023-05-09T16:55:36.118Z,0.28
2023-05-09T16:56:35.985Z,0.42
2023-05-09T16:57:35.866Z,0.31
2023-05-09T16:58:36.828Z,0.55
2023-05-09T16:59:35.583Z,0.30
2023-05-09T17:00:35.470Z,0.39
2023-05-09T17:01:35.469Z,0.44
2023-05-09T17:02:35.271Z,0.26
2023-05-09T17:03:35.079Z,0.41
2023-05-09T17:04:37.501Z,0.35
2023-05-09T17:05:34.927Z,0.31
2023-05-09T17:06:34.709Z,0.26
2023-05-09T17:07:34.587Z,0.45
2023-05-09T17:08:34.467Z,0.37
2023-05-09T17:09:34.331Z,0.38
2023-05-09T17:10:35.239Z,0.36
2023-05-09T17:11:34.111Z,0.44
2023-05-09T17:12:33.971Z,0.21
2023-05-09T17:13:33.850Z,0.33
2023-05-09T17:14:33.723Z,0.73
2023-05-09T17:15:33.600Z,0.32
2023-05-09T17:16:35.263Z,0.64
2023-05-09T17:17:33.368Z,0.40
2023-05-09T17:18:37.423Z,0.34
2023-05-09T17:19:33.102Z,0.29
2023-05-09T17:20:32.994Z,0.39
2023-05-09T17:21:32.955Z,0.36
2023-05-09T17:22:33.141Z,0.35
2023-05-09T17:23:32.635Z,0.39
2023-05-09T17:24:32.494Z,0.41
2023-05-09T17:25:32.354Z,0.39
2023-05-09T17:26:32.256Z,0.39
2023-05-09T17:27:32.110Z,0.33
2023-05-09T17:28:31.995Z,0.31
2023-05-09T17:29:31.868Z,0.56
2023-05-09T17:30:31.739Z,0.30
2023-05-09T17:31:31.656Z,0.39
2023-05-09T17:32:31.540Z,0.30
2023-05-09T17:33:31.411Z,0.32
2023-05-09T17:34:31.331Z,0.32
2023-05-09T17:35:31.239Z,0.46
2023-05-09T17:36:31.167Z,0.39
2023-05-09T17:37:31.164Z,0.41
2023-05-09T17:38:31.012Z,0.33
2023-05-09T17:39:30.914Z,0.31
2023-05-09T17:40:30.835Z,0.45
2023-05-09T17:41:30.776Z,0.36
2023-05-09T17:42:30.677Z,0.34
2023-05-09T17:43:30.602Z,0.50
2023-05-09T17:44:30.548Z,0.32
2023-05-09T17:45:30.465Z,0.31
2023-05-09T17:46:30.409Z,0.36
2023-05-09T17:47:30.325Z,0.31
2023-05-09T17:48:30.237Z,0.30
2023-05-09T17:49:30.175Z,0.78
2023-05-09T17:50:30.066Z,0.40
2023-05-09T17:51:30.012Z,0.28
2023-05-09T17:52:29.924Z,0.25
2023-05-09T17:53:29.929Z,0.47
2023-05-09T17:54:29.799Z,0.48
2023-05-09T17:55:29.710Z,0.37
2023-05-09T17:56:29.636Z,0.39
2023-05-09T17:57:29.563Z,0.23
2023-05-09T17:58:29.882Z,0.39
2023-05-09T17:59:29.410Z,0.33
2023-05-09T18:00:29.353Z,0.13
2023-05-09T18:01:29.358Z,0.46
2023-05-09T18:02:29.300Z,0.37
2023-05-09T18:03:29.275Z,0.57
2023-05-09T18:04:29.104Z,0.47
2023-05-09T18:05:29.041Z,0.36
2023-05-09T18:06:28.978Z,0.36
2023-05-09T18:07:28.912Z,0.26
2023-05-09T18:08:28.870Z,0.43
2023-05-09T18:09:28.887Z,0.47
2023-05-09T18:10:28.746Z,0.39
2023-05-09T18:11:28.720Z,0.43
2023-05-09T18:12:28.639Z,0.40
2023-05-09T18:13:28.628Z,0.47
2023-05-09T18:14:28.512Z,0.35
2023-05-09T18:15:28.462Z,0.34
2023-05-09T18:16:28.436Z,0.48
2023-05-09T18:17:28.376Z,0.35
2023-05-09T18:18:28.291Z,0.23
2023-05-09T18:19:28.236Z,0.28
2023-05-09T18:20:28.206Z,0.27
2023-05-09T18:21:28.065Z,0.33
2023-05-09T18:22:27.939Z,0.26
2023-05-09T18:23:27.839Z,0.25
2023-05-09T18:24:27.715Z,0.27
2023-05-09T18:25:27.676Z,0.35
2023-05-09T18:26:27.475Z,0.17
2023-05-09T18:27:27.341Z,0.17
2023-05-09T18:28:27.223Z,0.40
2023-05-09T18:29:27.093Z,0.40
2023-05-09T18:30:27.027Z,0.34
2023-05-09T18:31:27.034Z,0.50
2023-05-09T18:32:26.992Z,0.60
2023-05-09T18:33:26.920Z,0.44
2023-05-09T18:34:26.821Z,0.41
2023-05-09T18:35:26.747Z,0.45
2023-05-09T18:36:26.695Z,0.29
2023-05-09T18:37:26.580Z,0.36
2023-05-09T18:38:26.521Z,0.40
2023-05-09T18:39:26.423Z,0.20
2023-05-09T18:40:26.343Z,0.36
2023-05-09T18:41:26.410Z,0.27
2023-05-09T18:42:26.256Z,0.23
2023-05-09T18:43:26.174Z,0.34
2023-05-09T18:44:26.124Z,0.35
2023-05-09T18:45:26.039Z,0.46
2023-05-09T18:46:26.012Z,0.18
2023-05-09T18:47:25.920Z,0.36
2023-05-09T18:48:25.802Z,0.48
2023-05-09T18:49:25.725Z,0.47
2023-05-09T18:50:25.638Z,0.42
2023-05-09T18:51:25.589Z,0.27
2023-05-09T18:52:25.464Z,0.30
2023-05-09T18:53:25.389Z,0.25
2023-05-09T18:54:25.325Z,0.39
2023-05-09T18:55:25.263Z,0.55
2023-05-09T18:56:25.189Z,0.30
2023-05-09T18:57:25.218Z,0.37
2023-05-09T18:58:25.034Z,0.34
2023-05-09T18:59:24.963Z,0.22
2023-05-09T19:00:24.870Z,0.29
2023-05-09T19:01:24.897Z,0.34
2023-05-09T19:02:24.770Z,0.45
2023-05-09T19:03:24.634Z,0.40
2023-05-09T19:04:24.585Z,0.35
2023-05-09T19:05:24.456Z,0.25
2023-05-09T19:06:24.384Z,0.32
2023-05-09T19:07:24.301Z,0.34
2023-05-09T19:08:24.195Z,0.51
2023-05-09T19:09:24.104Z,0.40
2023-05-09T19:10:24.004Z,0.37
2023-05-09T19:11:23.900Z,1.10
2023-05-09T19:12:23.874Z,0.36
2023-05-09T19:13:23.781Z,0.29
2023-05-09T19:14:23.633Z,0.51
2023-05-09T19:15:23.569Z,0.32
2023-05-09T19:16:23.440Z,0.30
2023-05-09T19:17:23.332Z,0.29
2023-05-09T19:18:23.242Z,0.33
2023-05-09T19:19:23.142Z,0.35
2023-05-09T19:20:23.026Z,0.40
2023-05-09T19:21:22.920Z,0.31
2023-05-09T19:22:22.824Z,0.50
2023-05-09T19:23:22.718Z,0.24
2023-05-09T19:24:22.649Z,0.29
2023-05-09T19:25:22.513Z,0.31
2023-05-09T19:26:22.402Z,0.40
2023-05-09T19:27:22.318Z,0.51
2023-05-09T19:28:22.192Z,0.33
2023-05-09T19:29:22.082Z,0.34
2023-05-09T19:30:21.981Z,0.27
2023-05-09T19:31:21.916Z,0.30
2023-05-09T19:32:21.768Z,0.33
2023-05-09T19:33:21.649Z,0.29
2023-05-09T19:34:21.551Z,0.22
2023-05-09T19:35:21.453Z,0.40
2023-05-09T19:36:21.331Z,0.30
2023-05-09T19:37:21.228Z,0.35
2023-05-09T19:38:21.114Z,0.36
2023-05-09T19:39:21.015Z,0.27
2023-05-09T19:40:20.900Z,0.41
2023-05-09T19:41:20.798Z,0.35
2023-05-09T19:42:20.702Z,0.35
2023-05-09T19:43:20.595Z,0.48
2023-05-09T19:44:20.494Z,0.49
2023-05-09T19:45:20.454Z,0.47
2023-05-09T19:46:20.316Z,0.39
2023-05-09T19:47:20.197Z,0.36
2023-05-09T19:48:20.096Z,0.31
2023-05-09T19:49:19.991Z,0.31
2023-05-09T19:50:19.895Z,0.39
2023-05-09T19:51:19.789Z,0.25
2023-05-09T19:52:19.687Z,0.46
2023-05-09T19:53:19.612Z,0.29
2023-05-09T19:54:19.491Z,0.52
2023-05-09T19:55:19.408Z,0.48
2023-05-09T19:56:19.333Z,0.50
2023-05-09T19:57:19.214Z,0.38
2023-05-09T19:58:19.103Z,0.26
2023-05-09T19:59:19.016Z,0.27